Latest Weather Observations for Halls Creek

IDD60801

Issued at 4:05 pm CST Monday 24 November 2014 (issued every 30 minutes, with the page automatically refreshed every 10 minutes)

About weather observations | Map of weather stations | Latest weather observations for NT | Other Formats
Station Details ID: 002012 Name: HALLS CREEK AIRPORT Lat: -18.23 Lon: 127.66 Height: 422.0 m
Data from the previous 72 hours. | See also: Recent months at Halls Creek
Date/Time
CST
Temp
°C
App
Temp
°C
Dew
Point
Rel
Hum
%
Delta-T
°C
Wind Press
QNH
hPa
Press
MSL
hPa
Rain
since 9 am
mm
Dir
 
Spd
km/h
Gust
km/h
Spd
kts
Gust
kts
24/04:00pm 32.0 32.4 15.3 36 10.5 E 7 11 4 6 1009.8 - 0.2
24/03:30pm 31.6 33.4 17.4 42 9.2 E 4 7 2 4 1010.4 - 0.2
24/03:00pm 31.0 32.7 17.2 43 8.9 NNW 4 6 2 3 1010.7 - 0.2
24/02:30pm 30.5 32.7 18.4 48 7.9 W 4 7 2 4 1011.1 - 0.2
24/02:00pm 29.5 31.5 18.7 52 7.1 NW 6 9 3 5 1011.5 - 0.2
24/01:30pm 28.7 31.4 19.5 57 6.1 WNW 4 9 2 5 1012.0 1008.6 0.2
24/01:00pm 28.6 31.8 20.4 61 5.5 W 4 7 2 4 1012.7 - 0.2
24/12:30pm 29.2 31.3 19.4 55 6.5 SSW 7 11 4 6 1012.9 - 0.2
24/12:00pm 29.7 31.2 17.6 48 7.8 SW 6 11 3 6 1013.6 - 0.2
24/11:30am 29.7 31.8 18.2 50 7.5 ESE 4 9 2 5 1014.3 - 0.2
24/11:00am 28.7 31.4 20.3 60 5.6 ESE 6 11 3 6 1014.7 - 0.2
24/10:30am 27.0 30.1 20.2 66 4.5 NNE 4 7 2 4 1014.7 1011.3 0.8
24/10:00am 26.0 29.2 20.6 72 3.6 NNE 4 9 2 5 1015.2 - 0.8
24/09:30am 24.8 27.9 21.1 80 2.5 N 6 11 3 6 1015.3 - 0.8
24/09:00am 25.4 27.7 19.9 71 3.6 NNE 7 17 4 9 1015.3 - 0.8
24/08:30am 25.2 27.5 19.9 72 3.5 N 7 13 4 7 1015.1 - 0.8
24/08:00am 25.2 28.6 20.9 77 2.9 N 4 11 2 6 1013.8 - 0.8
24/07:00am 25.0 28.6 20.6 76 2.9 N 2 4 1 2 1013.6 - 0.8
24/06:30am 24.6 27.2 20.0 75 3.0 SE 6 9 3 5 1013.0 - 0.8
24/06:00am 24.8 28.5 20.7 78 2.7 ENE 2 6 1 3 1012.9 - 0.8
24/05:30am 24.3 26.9 20.4 79 2.6 SSE 7 11 4 6 1012.8 - 0.8
24/05:00am 26.5 28.4 19.0 63 4.9 SSE 7 17 4 9 1012.4 - 0.0
24/04:30am 28.2 28.2 17.3 51 7.0 S 13 26 7 14 1011.8 1008.4 0.0
24/04:00am 28.6 30.6 17.9 52 6.9 SSE 4 6 2 3 1011.2 - 0.0
24/03:30am 29.3 30.4 16.6 46 8.1 NW 6 11 3 6 1010.8 - 0.0
24/03:00am 29.5 31.2 17.2 47 7.9 W 4 9 2 5 1010.8 - 0.0
24/02:30am 29.5 31.5 17.0 47 8.0 W 2 7 1 4 1010.7 - 0.0
24/02:00am 29.5 31.2 17.2 47 7.9 W 4 11 2 6 1010.8 - 0.0
24/01:30am 29.6 30.3 16.2 44 8.5 WNW 7 11 4 6 1011.2 1007.7 0.0
24/01:00am 29.5 30.4 16.6 45 8.2 W 7 13 4 7 1011.4 - 0.0
24/12:30am 29.4 30.8 17.3 48 7.8 W 6 9 3 5 1011.8 - 0.0
24/12:00am 29.8 31.3 17.6 48 7.9 W 6 9 3 5 1012.2 - 0.0
 
Date/Time
CST
Temp
°C
App
Temp
°C
Dew
Point
Rel
Hum
%
Delta-T
°C
Wind Press
QNH
hPa
Press
MSL
hPa
Rain
since 9 am
mm
Dir
 
Spd
km/h
Gust
km/h
Spd
kts
Gust
kts
23/11:30pm 30.2 31.9 18.1 48 7.9 WNW 6 11 3 6 1012.7 - 0.0
23/11:00pm 30.4 33.0 18.5 49 7.8 NW 2 4 1 2 1012.3 - 0.0
23/10:30pm 30.6 33.2 18.4 48 8.0 N 2 7 1 4 1012.1 1008.7 0.0
23/10:00pm 30.7 33.5 18.9 49 7.8 SW 2 7 1 4 1011.7 - 0.0
23/09:30pm 31.0 33.1 18.1 46 8.4 W 4 6 2 3 1011.8 - 0.0
23/09:00pm 31.0 32.9 17.6 44 8.7 SSW 4 11 2 6 1011.7 - 0.0
23/08:30pm 31.2 33.0 18.4 46 8.4 S 6 11 3 6 1011.5 - 0.0
23/08:00pm 32.1 33.9 17.3 41 9.6 WNW 4 9 2 5 1010.7 - 0.0
23/07:30pm 32.6 33.6 16.4 37 10.4 WNW 6 13 3 7 1010.4 1006.9 0.0
23/07:00pm 32.8 34.2 16.4 37 10.5 W 4 7 2 4 1010.2 - 0.0
23/06:30pm 32.9 33.6 16.2 36 10.7 WNW 7 13 4 7 1009.3 - 0.0
23/06:00pm 33.3 33.7 16.3 36 10.9 NW 9 17 5 9 1009.1 - 0.0
23/05:30pm 34.3 34.6 15.0 31 12.2 WNW 7 17 4 9 1009.1 - 0.0
23/05:00pm 34.7 34.4 14.5 29 12.7 NNW 9 20 5 11 1008.7 - 0.0
23/04:30pm 35.5 34.6 14.8 29 13.1 N 13 28 7 15 1008.8 1005.3 0.0
23/04:00pm 36.6 36.7 13.8 25 14.3 ENE 6 9 3 5 1008.8 - 0.0
23/03:30pm 37.2 36.4 12.8 23 15.1 E 9 19 5 10 1009.0 - 0.0
23/03:00pm 37.6 36.7 12.5 22 15.5 NE 9 19 5 10 1009.2 - 0.0
23/02:30pm 38.1 37.2 12.6 21 15.8 ESE 9 17 5 9 1009.7 - 0.0
23/02:00pm 37.5 37.6 12.6 22 15.4 NNW 4 9 2 5 1010.3 - 0.0
23/01:30pm 38.5 38.8 13.5 22 15.7 NE 4 15 2 8 1010.8 1007.3 0.0
23/01:00pm 37.9 37.8 13.2 23 15.4 SE 6 15 3 8 1011.2 - 0.0
23/12:30pm 37.7 37.9 14.3 25 14.8 NNW 6 13 3 7 1011.8 - 0.0
23/12:00pm 37.2 37.6 14.7 26 14.3 SSE 6 15 3 8 1012.4 - 0.0
23/11:30am 35.7 36.2 15.1 29 13.1 SW 6 11 3 6 1012.9 - 0.0
23/11:00am 35.0 37.1 18.2 37 11.1 NE 4 9 2 5 1013.2 - 0.0
23/10:30am 34.1 35.6 18.0 38 10.6 NNE 7 19 4 10 1013.4 1009.9 0.0
23/10:00am 33.6 34.5 16.7 36 10.9 NW 7 13 4 7 1013.4 - 0.0
23/09:30am 32.2 33.6 17.8 42 9.4 W 7 17 4 9 1013.2 - 0.0
23/09:00am 31.7 32.8 17.9 43 9.0 W 9 19 5 10 1013.1 - 0.0
23/08:30am 30.5 31.9 17.9 47 8.2 W 7 13 4 7 1013.2 - 0.0
23/08:00am 29.8 31.6 18.7 51 7.3 W 7 11 4 6 1013.0 - 0.0
23/07:30am 27.8 30.7 19.8 61 5.3 WSW 4 9 2 5 1012.8 1009.3 0.0
23/07:00am 24.5 28.2 20.7 79 2.5 SW 2 4 1 2 1012.6 - 0.0
23/06:30am 24.7 27.6 19.0 70 3.7 WNW 2 4 1 2 1012.3 - 0.0
23/06:00am 25.1 27.5 18.9 68 4.0 ENE 4 6 2 3 1012.1 - 0.0
23/05:30am 24.9 28.2 19.2 70 3.7 CALM 0 2 0 1 1011.7 - 0.0
23/05:00am 24.7 28.6 20.3 76 2.9 CALM 0 2 0 1 1011.7 - 0.0
23/04:30am 25.3 28.4 19.5 70 3.8 E 2 4 1 2 1011.6 1008.2 0.0
23/04:00am 26.0 28.9 19.1 65 4.5 N 2 4 1 2 1011.5 - 0.0
23/03:30am 26.2 28.8 18.3 61 5.1 NE 2 6 1 3 1011.5 - 0.0
23/03:00am 26.5 29.2 18.6 62 5.1 NW 2 6 1 3 1011.2 - 0.0
23/02:30am 27.6 30.0 18.0 55 6.2 N 2 6 1 3 1011.6 - 0.0
23/02:00am 28.3 29.5 16.8 49 7.3 N 6 13 3 7 1011.7 - 0.0
23/01:30am 28.7 29.8 16.7 48 7.6 N 6 11 3 6 1012.2 1008.8 0.0
23/01:00am 28.4 29.3 17.5 51 7.0 NNE 9 20 5 11 1012.6 - 0.0
23/12:30am 27.0 30.9 21.2 70 3.9 NNW 2 4 1 2 1012.3 - 0.0
23/12:00am 27.0 31.0 21.4 71 3.8 NNW 2 4 1 2 1012.7 - 0.0
 
Date/Time
CST
Temp
°C
App
Temp
°C
Dew
Point
Rel
Hum
%
Delta-T
°C
Wind Press
QNH
hPa
Press
MSL
hPa
Rain
since 9 am
mm
Dir
 
Spd
km/h
Gust
km/h
Spd
kts
Gust
kts
22/11:30pm 27.0 30.5 20.4 67 4.4 SE 2 2 1 1 1012.8 - 0.0
22/11:00pm 27.0 29.9 19.9 65 4.7 S 4 6 2 3 1012.9 - 0.0
22/10:30pm 26.8 30.5 20.7 69 4.1 WSW 2 4 1 2 1013.1 1009.6 0.0
22/10:00pm 27.0 31.1 20.7 68 4.2 CALM 0 2 0 1 1012.9 - 0.0
22/09:30pm 27.2 30.7 19.5 62 5.1 CALM 0 2 0 1 1012.7 - 0.0
22/09:00pm 27.8 30.6 18.8 58 5.9 N 2 4 1 2 1012.3 - 0.0
22/08:30pm 28.0 31.3 20.0 61 5.3 W 2 4 1 2 1011.7 - 0.0
22/08:00pm 29.2 30.6 17.4 49 7.6 WNW 6 11 3 6 1011.4 - 0.0
22/07:30pm 30.4 30.9 16.6 43 8.8 NW 9 19 5 10 1011.5 1008.0 0.0
22/07:00pm 31.6 33.6 17.0 41 9.4 SW 2 4 1 2 1010.8 - 0.0
22/06:30pm 32.8 33.7 15.2 34 11.1 E 4 7 2 4 1010.3 - 0.0
22/06:00pm 33.6 34.3 15.7 34 11.4 E 6 11 3 6 1009.8 - 0.0
22/05:30pm 33.3 35.3 17.9 40 10.1 ESE 4 9 2 5 1009.8 - 0.0
22/05:00pm 32.3 34.1 18.3 43 9.2 S 6 11 3 6 1009.7 - 0.0
22/04:30pm 32.6 34.2 17.0 39 10.1 S 4 9 2 5 1009.9 1006.5 0.0
22/04:00pm 32.5 35.3 18.8 44 9.1 SSE 2 7 1 4 1010.5 - 0.0
22/03:30pm 31.1 33.3 19.2 49 7.9 SSE 6 9 3 5 1011.1 - 0.0
22/03:00pm 30.6 33.0 18.9 49 7.7 ESE 4 7 2 4 1012.0 - 0.0
22/02:30pm 30.4 32.8 18.9 50 7.6 SE 4 6 2 3 1012.1 - 0.0
22/02:00pm 30.9 32.3 17.8 45 8.5 E 7 13 4 7 1012.1 - 0.0
22/01:30pm 32.7 33.3 15.7 36 10.8 ENE 7 11 4 6 1012.3 1008.9 0.0
22/01:00pm 32.8 33.6 15.8 36 10.8 NNE 6 11 3 6 1012.7 - 0.0
22/12:30pm 32.1 33.5 17.3 41 9.6 ENE 6 11 3 6 1013.1 - 0.0
22/12:00pm 31.7 32.5 17.3 42 9.3 ENE 9 17 5 9 1013.4 - 0.0
22/11:30am 32.4 32.7 15.9 37 10.5 NE 9 17 5 9 1013.4 - 0.0
22/11:00am 31.2 32.1 16.7 41 9.3 NE 7 15 4 8 1013.5 - 0.0
22/10:30am 29.9 32.4 19.1 52 7.1 NE 4 7 2 4 1013.7 1010.2 11.2
22/10:00am 28.8 31.7 19.1 55 6.4 E 2 4 1 2 1013.8 - 11.2
22/09:30am 28.3 30.6 18.6 55 6.3 NE 4 7 2 4 1013.9 - 11.2
22/09:00am 28.1 29.8 18.4 55 6.3 NE 7 13 4 7 1013.8 - 11.2
22/08:30am 27.3 29.8 19.0 60 5.4 E 4 9 2 5 1014.0 - 11.2
22/08:00am 26.2 29.5 20.7 71 3.7 E 4 6 2 3 1013.7 - 11.2
22/07:30am 26.2 29.7 20.3 70 3.9 NNE 2 6 1 3 1013.2 1009.7 11.2
22/07:00am 25.9 29.2 20.7 73 3.5 N 4 6 2 3 1012.7 - 11.2
22/06:30am 25.8 29.0 20.4 72 3.6 N 4 6 2 3 1012.0 - 11.2
22/06:00am 25.6 29.4 21.0 75 3.1 NNW 2 4 1 2 1011.8 - 11.2
22/05:30am 25.4 29.3 21.2 77 2.8 NNW 2 2 1 1 1012.0 - 11.2
22/05:00am 25.3 29.3 21.3 78 2.7 SW 2 6 1 3 1011.8 - 11.2
22/04:30am 26.1 29.4 19.9 68 4.1 NNW 2 4 1 2 1011.7 1008.3 11.2
22/04:00am 25.8 29.0 19.7 69 4.0 N 2 6 1 3 1011.8 - 11.2
22/03:30am 25.8 28.6 19.6 68 4.1 NE 4 9 2 5 1011.9 - 11.2
22/03:00am 25.8 29.3 20.4 72 3.6 N 2 4 1 2 1011.9 - 11.2
22/02:30am 26.2 30.7 21.5 75 3.2 CALM 0 4 0 2 1011.9 - 11.2
22/02:00am 26.4 29.7 19.9 67 4.3 ENE 2 4 1 2 1012.1 - 11.2
22/01:30am 26.8 29.5 18.6 60 5.3 SW 2 6 1 3 1012.4 1009.0 11.2
22/01:00am 27.0 28.8 18.2 58 5.7 SE 6 15 3 8 1012.3 - 11.2
22/12:30am 27.0 28.6 18.3 59 5.6 SSE 7 15 4 8 1012.6 - 11.2
22/12:00am 27.1 29.1 18.8 60 5.4 S 6 9 3 5 1012.7 - 11.2
 
Date/Time
CST
Temp
°C
App
Temp
°C
Dew
Point
Rel
Hum
%
Delta-T
°C
Wind Press
QNH
hPa
Press
MSL
hPa
Rain
since 9 am
mm
Dir
 
Spd
km/h
Gust
km/h
Spd
kts
Gust
kts
21/11:30pm 27.7 29.4 18.1 56 6.2 SSE 6 11 3 6 1013.1 - 11.2
21/11:00pm 27.4 29.7 18.6 58 5.7 S 4 9 2 5 1013.4 - 11.2
21/10:30pm 27.5 29.6 18.9 59 5.6 ESE 6 9 3 5 1013.8 1010.4 11.2
21/10:00pm 27.7 29.6 18.5 57 6.0 SSE 6 9 3 5 1013.5 - 11.2
21/09:30pm 27.9 30.8 19.1 58 5.8 SE 2 9 1 5 1013.1 - 11.2
21/09:00pm 28.1 30.2 18.2 55 6.4 S 4 9 2 5 1012.3 - 11.2
21/08:30pm 28.0 28.8 17.4 52 6.8 WSW 9 17 5 9 1011.1 - 11.2
21/08:00pm 28.5 28.7 17.6 51 7.0 S 13 30 7 16 1010.7 - 11.2
21/07:30pm 27.4 26.4 17.9 56 6.1 S 20 37 11 20 1010.8 1007.3 11.2
21/07:00pm 26.9 29.1 19.6 64 4.8 SSW 7 15 4 8 1011.4 - 11.2
21/06:30pm 26.9 29.6 20.3 67 4.4 S 6 11 3 6 1010.7 - 11.2
21/06:00pm 26.4 28.2 18.7 62 5.0 SW 7 19 4 10 1009.9 - 11.2

Other Formats:

Comma delimited format used in spreadsheet applications
http://www.bom.gov.au/fwo/IDD60801/IDD60801.94212.axf

JavaScript Object Notation format (JSON) in row-major order
http://www.bom.gov.au/fwo/IDD60801/IDD60801.94212.json